sensor_id;sensor_type;location;lat;lon;timestamp;P1;durP1;ratioP1;P2;durP2;ratioP2
33672;SDS011;20011;51.510;9.942;2022-08-05T00:00:46;8.15;;;3.55;;
33672;SDS011;20011;51.510;9.942;2022-08-05T00:03:15;10.27;;;4.88;;
33672;SDS011;20011;51.510;9.942;2022-08-05T00:05:43;9.00;;;3.25;;
33672;SDS011;20011;51.510;9.942;2022-08-05T00:08:30;17.27;;;5.22;;
33672;SDS011;20011;51.510;9.942;2022-08-05T00:11:01;6.65;;;3.90;;
33672;SDS011;20011;51.510;9.942;2022-08-05T00:13:45;6.68;;;3.47;;
33672;SDS011;20011;51.510;9.942;2022-08-05T00:16:18;15.00;;;3.47;;
33672;SDS011;20011;51.510;9.942;2022-08-05T00:19:06;9.25;;;3.70;;
33672;SDS011;20011;51.510;9.942;2022-08-05T00:21:32;6.57;;;3.22;;
33672;SDS011;20011;51.510;9.942;2022-08-05T00:24:01;8.45;;;3.42;;
33672;SDS011;20011;51.510;9.942;2022-08-05T00:26:36;8.18;;;3.30;;
33672;SDS011;20011;51.510;9.942;2022-08-05T00:29:04;6.38;;;3.35;;
33672;SDS011;20011;51.510;9.942;2022-08-05T00:31:31;12.13;;;3.78;;
33672;SDS011;20011;51.510;9.942;2022-08-05T00:34:18;4.95;;;3.30;;
33672;SDS011;20011;51.510;9.942;2022-08-05T00:37:05;6.82;;;3.20;;
33672;SDS011;20011;51.510;9.942;2022-08-05T00:39:39;7.35;;;3.00;;
33672;SDS011;20011;51.510;9.942;2022-08-05T00:42:34;5.18;;;3.30;;
33672;SDS011;20011;51.510;9.942;2022-08-05T00:45:03;9.15;;;4.13;;
33672;SDS011;20011;51.510;9.942;2022-08-05T00:47:34;4.43;;;3.15;;
33672;SDS011;20011;51.510;9.942;2022-08-05T00:50:21;7.97;;;3.15;;
33672;SDS011;20011;51.510;9.942;2022-08-05T00:52:51;6.27;;;3.37;;
33672;SDS011;20011;51.510;9.942;2022-08-05T00:55:20;4.35;;;3.25;;
33672;SDS011;20011;51.510;9.942;2022-08-05T00:58:07;7.50;;;3.88;;
33672;SDS011;20011;51.510;9.942;2022-08-05T01:00:37;10.93;;;4.15;;
33672;SDS011;20011;51.510;9.942;2022-08-05T01:03:05;6.38;;;3.65;;
33672;SDS011;20011;51.510;9.942;2022-08-05T01:05:33;8.32;;;4.22;;
33672;SDS011;20011;51.510;9.942;2022-08-05T01:08:01;5.65;;;3.58;;
33672;SDS011;20011;51.510;9.942;2022-08-05T01:11:09;6.95;;;4.00;;
33672;SDS011;20011;51.510;9.942;2022-08-05T01:13:41;9.57;;;3.65;;
33672;SDS011;20011;51.510;9.942;2022-08-05T01:22:24;8.70;;;4.10;;
33672;SDS011;20011;51.510;9.942;2022-08-05T01:30:26;10.60;;;4.20;;
33672;SDS011;20011;51.510;9.942;2022-08-05T01:33:00;27.13;;;6.03;;
33672;SDS011;20011;51.510;9.942;2022-08-05T01:35:35;12.90;;;4.30;;
33672;SDS011;20011;51.510;9.942;2022-08-05T01:38:18;6.53;;;4.82;;
33672;SDS011;20011;51.510;9.942;2022-08-05T01:40:53;4.90;;;4.10;;
33672;SDS011;20011;51.510;9.942;2022-08-05T01:43:22;49.63;;;8.32;;
33672;SDS011;20011;51.510;9.942;2022-08-05T01:45:51;50.83;;;10.07;;
33672;SDS011;20011;51.510;9.942;2022-08-05T01:48:22;24.23;;;8.60;;
33672;SDS011;20011;51.510;9.942;2022-08-05T01:50:57;14.73;;;7.80;;
33672;SDS011;20011;51.510;9.942;2022-08-05T01:53:37;13.93;;;7.68;;
33672;SDS011;20011;51.510;9.942;2022-08-05T01:56:25;21.02;;;8.38;;
33672;SDS011;20011;51.510;9.942;2022-08-05T01:59:16;10.63;;;7.03;;
33672;SDS011;20011;51.510;9.942;2022-08-05T02:04:15;20.80;;;8.68;;
33672;SDS011;20011;51.510;9.942;2022-08-05T02:06:46;17.15;;;9.13;;
33672;SDS011;20011;51.510;9.942;2022-08-05T02:09:13;17.33;;;8.95;;
33672;SDS011;20011;51.510;9.942;2022-08-05T02:11:44;13.05;;;8.93;;
33672;SDS011;20011;51.510;9.942;2022-08-05T02:14:19;18.73;;;9.32;;
33672;SDS011;20011;51.510;9.942;2022-08-05T02:17:00;18.17;;;9.67;;
33672;SDS011;20011;51.510;9.942;2022-08-05T02:19:33;17.40;;;8.70;;
33672;SDS011;20011;51.510;9.942;2022-08-05T02:24:57;16.58;;;7.20;;
33672;SDS011;20011;51.510;9.942;2022-08-05T02:27:32;8.88;;;6.40;;
33672;SDS011;20011;51.510;9.942;2022-08-05T02:30:24;15.02;;;7.55;;
33672;SDS011;20011;51.510;9.942;2022-08-05T02:32:55;16.33;;;8.80;;
33672;SDS011;20011;51.510;9.942;2022-08-05T02:35:24;19.42;;;8.35;;
33672;SDS011;20011;51.510;9.942;2022-08-05T02:38:03;16.48;;;9.23;;
33672;SDS011;20011;51.510;9.942;2022-08-05T02:40:35;17.02;;;8.63;;
33672;SDS011;20011;51.510;9.942;2022-08-05T02:43:02;12.30;;;8.50;;
33672;SDS011;20011;51.510;9.942;2022-08-05T02:45:32;14.07;;;8.90;;
33672;SDS011;20011;51.510;9.942;2022-08-05T02:48:19;19.63;;;9.20;;
33672;SDS011;20011;51.510;9.942;2022-08-05T02:50:56;13.77;;;8.68;;
33672;SDS011;20011;51.510;9.942;2022-08-05T02:53:26;17.90;;;9.23;;
33672;SDS011;20011;51.510;9.942;2022-08-05T02:56:06;16.95;;;8.77;;
33672;SDS011;20011;51.510;9.942;2022-08-05T02:58:41;20.67;;;10.13;;
33672;SDS011;20011;51.510;9.942;2022-08-05T03:01:17;18.40;;;10.38;;
33672;SDS011;20011;51.510;9.942;2022-08-05T03:03:48;17.67;;;11.00;;
33672;SDS011;20011;51.510;9.942;2022-08-05T03:06:29;23.65;;;11.55;;
33672;SDS011;20011;51.510;9.942;2022-08-05T03:09:16;21.25;;;10.50;;
33672;SDS011;20011;51.510;9.942;2022-08-05T03:12:03;13.27;;;9.15;;
33672;SDS011;20011;51.510;9.942;2022-08-05T03:14:30;18.70;;;8.90;;
33672;SDS011;20011;51.510;9.942;2022-08-05T03:16:58;15.25;;;8.48;;
33672;SDS011;20011;51.510;9.942;2022-08-05T03:19:26;18.17;;;9.45;;
33672;SDS011;20011;51.510;9.942;2022-08-05T03:22:01;16.88;;;9.65;;
33672;SDS011;20011;51.510;9.942;2022-08-05T03:24:30;15.98;;;10.00;;
33672;SDS011;20011;51.510;9.942;2022-08-05T03:27:00;18.05;;;8.93;;
33672;SDS011;20011;51.510;9.942;2022-08-05T03:29:27;17.25;;;9.45;;
33672;SDS011;20011;51.510;9.942;2022-08-05T03:32:15;16.52;;;8.80;;
33672;SDS011;20011;51.510;9.942;2022-08-05T03:34:44;11.25;;;6.85;;
33672;SDS011;20011;51.510;9.942;2022-08-05T03:37:17;11.25;;;5.97;;
33672;SDS011;20011;51.510;9.942;2022-08-05T03:39:55;18.93;;;7.00;;
33672;SDS011;20011;51.510;9.942;2022-08-05T03:42:29;10.00;;;6.40;;
33672;SDS011;20011;51.510;9.942;2022-08-05T03:44:58;10.23;;;6.65;;
33672;SDS011;20011;51.510;9.942;2022-08-05T03:47:28;11.73;;;6.15;;
33672;SDS011;20011;51.510;9.942;2022-08-05T03:50:06;10.90;;;7.00;;
33672;SDS011;20011;51.510;9.942;2022-08-05T03:55:53;16.08;;;5.28;;
33672;SDS011;20011;51.510;9.942;2022-08-05T03:58:43;9.10;;;4.80;;
33672;SDS011;20011;51.510;9.942;2022-08-05T04:01:12;8.50;;;5.13;;
33672;SDS011;20011;51.510;9.942;2022-08-05T04:03:46;8.93;;;5.47;;
33672;SDS011;20011;51.510;9.942;2022-08-05T04:06:35;13.13;;;5.30;;
33672;SDS011;20011;51.510;9.942;2022-08-05T04:09:03;10.02;;;5.07;;
33672;SDS011;20011;51.510;9.942;2022-08-05T04:11:35;10.57;;;4.57;;
33672;SDS011;20011;51.510;9.942;2022-08-05T04:14:13;8.52;;;4.70;;
33672;SDS011;20011;51.510;9.942;2022-08-05T04:16:43;7.22;;;5.40;;
33672;SDS011;20011;51.510;9.942;2022-08-05T04:19:10;10.27;;;5.35;;
33672;SDS011;20011;51.510;9.942;2022-08-05T04:21:38;8.05;;;5.43;;
33672;SDS011;20011;51.510;9.942;2022-08-05T04:24:26;9.75;;;5.03;;
33672;SDS011;20011;51.510;9.942;2022-08-05T04:26:54;10.65;;;5.28;;
33672;SDS011;20011;51.510;9.942;2022-08-05T04:29:23;9.60;;;5.13;;
33672;SDS011;20011;51.510;9.942;2022-08-05T04:31:52;9.60;;;4.88;;
33672;SDS011;20011;51.510;9.942;2022-08-05T04:34:22;12.70;;;4.57;;
33672;SDS011;20011;51.510;9.942;2022-08-05T04:37:00;8.82;;;4.47;;
33672;SDS011;20011;51.510;9.942;2022-08-05T04:39:28;11.63;;;5.40;;
33672;SDS011;20011;51.510;9.942;2022-08-05T04:41:57;7.07;;;4.53;;
33672;SDS011;20011;51.510;9.942;2022-08-05T04:44:24;9.70;;;5.60;;
33672;SDS011;20011;51.510;9.942;2022-08-05T04:46:58;9.93;;;4.97;;
33672;SDS011;20011;51.510;9.942;2022-08-05T04:49:36;10.77;;;5.18;;
33672;SDS011;20011;51.510;9.942;2022-08-05T04:52:24;9.40;;;5.43;;
33672;SDS011;20011;51.510;9.942;2022-08-05T04:54:53;10.05;;;5.68;;
33672;SDS011;20011;51.510;9.942;2022-08-05T04:57:22;8.13;;;5.35;;
33672;SDS011;20011;51.510;9.942;2022-08-05T04:59:54;9.55;;;5.28;;
33672;SDS011;20011;51.510;9.942;2022-08-05T05:02:21;8.63;;;5.15;;
33672;SDS011;20011;51.510;9.942;2022-08-05T05:05:03;11.70;;;6.00;;
33672;SDS011;20011;51.510;9.942;2022-08-05T05:07:51;8.82;;;6.43;;
33672;SDS011;20011;51.510;9.942;2022-08-05T05:10:27;11.90;;;7.38;;
33672;SDS011;20011;51.510;9.942;2022-08-05T05:12:55;12.82;;;7.28;;
33672;SDS011;20011;51.510;9.942;2022-08-05T05:15:23;9.98;;;6.38;;
33672;SDS011;20011;51.510;9.942;2022-08-05T05:18:12;14.65;;;7.65;;
33672;SDS011;20011;51.510;9.942;2022-08-05T05:20:54;13.38;;;7.38;;
33672;SDS011;20011;51.510;9.942;2022-08-05T05:23:23;11.70;;;7.13;;
33672;SDS011;20011;51.510;9.942;2022-08-05T05:25:51;12.73;;;7.90;;
33672;SDS011;20011;51.510;9.942;2022-08-05T05:28:18;11.65;;;7.32;;
33672;SDS011;20011;51.510;9.942;2022-08-05T05:30:46;14.20;;;7.10;;
33672;SDS011;20011;51.510;9.942;2022-08-05T05:33:15;9.60;;;6.53;;
33672;SDS011;20011;51.510;9.942;2022-08-05T05:35:48;11.57;;;7.03;;
33672;SDS011;20011;51.510;9.942;2022-08-05T05:38:17;9.93;;;6.70;;
33672;SDS011;20011;51.510;9.942;2022-08-05T05:40:53;17.20;;;7.82;;
33672;SDS011;20011;51.510;9.942;2022-08-05T05:46:09;7.75;;;5.90;;
33672;SDS011;20011;51.510;9.942;2022-08-05T05:48:43;11.18;;;5.93;;
33672;SDS011;20011;51.510;9.942;2022-08-05T05:51:23;9.73;;;5.90;;
33672;SDS011;20011;51.510;9.942;2022-08-05T05:53:53;10.43;;;6.45;;
33672;SDS011;20011;51.510;9.942;2022-08-05T05:56:28;10.57;;;6.30;;
33672;SDS011;20011;51.510;9.942;2022-08-05T05:59:03;15.20;;;6.78;;
33672;SDS011;20011;51.510;9.942;2022-08-05T06:01:36;11.35;;;6.65;;
33672;SDS011;20011;51.510;9.942;2022-08-05T06:04:09;6.45;;;5.75;;
33672;SDS011;20011;51.510;9.942;2022-08-05T06:06:42;11.27;;;6.75;;
33672;SDS011;20011;51.510;9.942;2022-08-05T06:09:14;8.60;;;6.68;;
33672;SDS011;20011;51.510;9.942;2022-08-05T06:11:53;10.82;;;6.50;;
33672;SDS011;20011;51.510;9.942;2022-08-05T06:14:31;10.68;;;6.95;;
33672;SDS011;20011;51.510;9.942;2022-08-05T06:17:00;21.75;;;6.75;;
33672;SDS011;20011;51.510;9.942;2022-08-05T06:19:47;15.60;;;7.50;;
33672;SDS011;20011;51.510;9.942;2022-08-05T06:22:29;14.70;;;6.50;;
33672;SDS011;20011;51.510;9.942;2022-08-05T06:24:59;11.13;;;8.18;;
33672;SDS011;20011;51.510;9.942;2022-08-05T06:27:46;14.25;;;7.78;;
33672;SDS011;20011;51.510;9.942;2022-08-05T06:30:33;9.15;;;7.38;;
33672;SDS011;20011;51.510;9.942;2022-08-05T06:33:01;10.57;;;6.90;;
33672;SDS011;20011;51.510;9.942;2022-08-05T06:35:28;12.98;;;7.32;;
33672;SDS011;20011;51.510;9.942;2022-08-05T06:38:15;13.40;;;8.13;;
33672;SDS011;20011;51.510;9.942;2022-08-05T06:41:01;12.35;;;7.53;;
33672;SDS011;20011;51.510;9.942;2022-08-05T06:43:29;15.63;;;8.10;;
33672;SDS011;20011;51.510;9.942;2022-08-05T06:46:17;15.73;;;7.85;;
33672;SDS011;20011;51.510;9.942;2022-08-05T06:48:44;17.33;;;7.22;;
33672;SDS011;20011;51.510;9.942;2022-08-05T06:51:22;12.02;;;7.05;;
33672;SDS011;20011;51.510;9.942;2022-08-05T06:53:59;11.40;;;6.57;;
33672;SDS011;20011;51.510;9.942;2022-08-05T06:56:28;11.77;;;6.25;;
33672;SDS011;20011;51.510;9.942;2022-08-05T06:59:00;9.57;;;6.07;;
33672;SDS011;20011;51.510;9.942;2022-08-05T07:01:35;11.30;;;6.28;;
33672;SDS011;20011;51.510;9.942;2022-08-05T07:04:06;9.27;;;5.57;;
33672;SDS011;20011;51.510;9.942;2022-08-05T07:06:33;11.35;;;6.20;;
33672;SDS011;20011;51.510;9.942;2022-08-05T07:09:01;11.40;;;5.95;;
33672;SDS011;20011;51.510;9.942;2022-08-05T07:11:30;8.80;;;4.88;;
33672;SDS011;20011;51.510;9.942;2022-08-05T07:14:02;7.45;;;4.63;;
33672;SDS011;20011;51.510;9.942;2022-08-05T07:16:56;8.48;;;5.18;;
33672;SDS011;20011;51.510;9.942;2022-08-05T07:19:46;9.43;;;4.50;;
33672;SDS011;20011;51.510;9.942;2022-08-05T07:22:34;6.28;;;4.50;;
33672;SDS011;20011;51.510;9.942;2022-08-05T07:25:01;9.38;;;3.78;;
33672;SDS011;20011;51.510;9.942;2022-08-05T07:27:49;6.95;;;5.03;;
33672;SDS011;20011;51.510;9.942;2022-08-05T07:30:34;7.68;;;4.28;;
33672;SDS011;20011;51.510;9.942;2022-08-05T07:33:05;9.43;;;4.63;;
33672;SDS011;20011;51.510;9.942;2022-08-05T07:35:43;8.52;;;5.35;;
33672;SDS011;20011;51.510;9.942;2022-08-05T07:38:31;11.82;;;6.25;;
33672;SDS011;20011;51.510;9.942;2022-08-05T07:41:09;15.43;;;6.85;;
33672;SDS011;20011;51.510;9.942;2022-08-05T07:44:00;14.60;;;7.40;;
33672;SDS011;20011;51.510;9.942;2022-08-05T07:46:29;11.40;;;6.80;;
33672;SDS011;20011;51.510;9.942;2022-08-05T07:48:59;11.05;;;6.97;;
33672;SDS011;20011;51.510;9.942;2022-08-05T07:51:33;13.70;;;6.47;;
33672;SDS011;20011;51.510;9.942;2022-08-05T07:54:19;10.40;;;7.30;;
33672;SDS011;20011;51.510;9.942;2022-08-05T07:56:55;14.15;;;7.72;;
33672;SDS011;20011;51.510;9.942;2022-08-05T07:59:42;11.88;;;7.70;;
33672;SDS011;20011;51.510;9.942;2022-08-05T08:02:14;11.77;;;8.85;;
33672;SDS011;20011;51.510;9.942;2022-08-05T08:04:43;15.82;;;9.05;;
33672;SDS011;20011;51.510;9.942;2022-08-05T08:07:13;13.48;;;8.23;;
33672;SDS011;20011;51.510;9.942;2022-08-05T08:09:49;8.65;;;7.72;;
33672;SDS011;20011;51.510;9.942;2022-08-05T08:12:18;11.57;;;7.07;;
33672;SDS011;20011;51.510;9.942;2022-08-05T08:14:56;10.45;;;7.32;;
33672;SDS011;20011;51.510;9.942;2022-08-05T08:17:28;10.68;;;6.97;;
33672;SDS011;20011;51.510;9.942;2022-08-05T08:19:55;14.60;;;8.13;;
33672;SDS011;20011;51.510;9.942;2022-08-05T08:22:48;8.02;;;7.10;;
33672;SDS011;20011;51.510;9.942;2022-08-05T08:25:21;18.25;;;8.35;;
33672;SDS011;20011;51.510;9.942;2022-08-05T08:28:01;13.68;;;8.48;;
33672;SDS011;20011;51.510;9.942;2022-08-05T08:30:28;9.57;;;7.78;;
33672;SDS011;20011;51.510;9.942;2022-08-05T08:33:12;16.50;;;7.75;;
33672;SDS011;20011;51.510;9.942;2022-08-05T08:35:40;11.55;;;7.80;;
33672;SDS011;20011;51.510;9.942;2022-08-05T08:38:19;9.77;;;5.85;;
33672;SDS011;20011;51.510;9.942;2022-08-05T08:41:06;13.32;;;7.75;;
33672;SDS011;20011;51.510;9.942;2022-08-05T08:43:39;9.27;;;6.18;;
33672;SDS011;20011;51.510;9.942;2022-08-05T08:46:28;12.27;;;7.55;;
33672;SDS011;20011;51.510;9.942;2022-08-05T08:48:57;12.95;;;7.47;;
33672;SDS011;20011;51.510;9.942;2022-08-05T08:51:48;11.40;;;7.47;;
33672;SDS011;20011;51.510;9.942;2022-08-05T08:54:31;16.98;;;8.48;;
33672;SDS011;20011;51.510;9.942;2022-08-05T08:57:03;10.05;;;6.88;;
33672;SDS011;20011;51.510;9.942;2022-08-05T08:59:37;11.60;;;8.38;;
33672;SDS011;20011;51.510;9.942;2022-08-05T09:02:12;14.60;;;7.63;;
33672;SDS011;20011;51.510;9.942;2022-08-05T09:04:41;11.10;;;7.85;;
33672;SDS011;20011;51.510;9.942;2022-08-05T09:07:30;12.13;;;8.18;;
33672;SDS011;20011;51.510;9.942;2022-08-05T09:10:18;13.55;;;8.27;;
33672;SDS011;20011;51.510;9.942;2022-08-05T09:12:52;13.00;;;8.63;;
33672;SDS011;20011;51.510;9.942;2022-08-05T09:15:21;12.52;;;7.97;;
33672;SDS011;20011;51.510;9.942;2022-08-05T09:17:50;12.20;;;8.75;;
33672;SDS011;20011;51.510;9.942;2022-08-05T09:20:18;12.70;;;7.88;;
33672;SDS011;20011;51.510;9.942;2022-08-05T09:23:11;20.40;;;8.65;;
33672;SDS011;20011;51.510;9.942;2022-08-05T09:25:48;9.60;;;8.32;;
33672;SDS011;20011;51.510;9.942;2022-08-05T09:28:29;15.15;;;8.73;;
33672;SDS011;20011;51.510;9.942;2022-08-05T09:34:01;11.25;;;9.20;;
33672;SDS011;20011;51.510;9.942;2022-08-05T09:37:04;11.13;;;9.23;;
33672;SDS011;20011;51.510;9.942;2022-08-05T09:39:25;10.98;;;7.85;;
33672;SDS011;20011;51.510;9.942;2022-08-05T09:42:11;13.05;;;9.20;;
33672;SDS011;20011;51.510;9.942;2022-08-05T09:44:49;12.55;;;8.75;;
33672;SDS011;20011;51.510;9.942;2022-08-05T09:47:23;10.60;;;9.00;;
33672;SDS011;20011;51.510;9.942;2022-08-05T09:50:12;8.75;;;7.65;;
33672;SDS011;20011;51.510;9.942;2022-08-05T09:52:57;9.57;;;7.55;;
33672;SDS011;20011;51.510;9.942;2022-08-05T09:55:26;12.70;;;8.27;;
33672;SDS011;20011;51.510;9.942;2022-08-05T09:58:14;10.27;;;8.45;;
33672;SDS011;20011;51.510;9.942;2022-08-05T10:00:51;9.50;;;7.15;;
33672;SDS011;20011;51.510;9.942;2022-08-05T10:03:22;11.20;;;6.95;;
33672;SDS011;20011;51.510;9.942;2022-08-05T10:06:10;11.20;;;7.32;;
33672;SDS011;20011;51.510;9.942;2022-08-05T10:08:41;10.95;;;7.60;;
33672;SDS011;20011;51.510;9.942;2022-08-05T10:11:19;7.80;;;6.70;;
33672;SDS011;20011;51.510;9.942;2022-08-05T10:13:46;12.60;;;7.70;;
33672;SDS011;20011;51.510;9.942;2022-08-05T10:16:33;9.05;;;7.35;;
33672;SDS011;20011;51.510;9.942;2022-08-05T10:19:03;8.38;;;6.88;;
33672;SDS011;20011;51.510;9.942;2022-08-05T10:21:35;8.30;;;6.72;;
33672;SDS011;20011;51.510;9.942;2022-08-05T10:24:09;7.45;;;6.03;;
33672;SDS011;20011;51.510;9.942;2022-08-05T10:26:42;8.23;;;6.25;;
33672;SDS011;20011;51.510;9.942;2022-08-05T10:29:19;7.55;;;5.97;;
33672;SDS011;20011;51.510;9.942;2022-08-05T10:32:07;8.02;;;6.70;;
33672;SDS011;20011;51.510;9.942;2022-08-05T10:34:55;7.45;;;6.10;;
33672;SDS011;20011;51.510;9.942;2022-08-05T10:37:27;5.70;;;5.03;;
33672;SDS011;20011;51.510;9.942;2022-08-05T10:40:30;7.00;;;5.40;;
33672;SDS011;20011;51.510;9.942;2022-08-05T10:43:12;5.40;;;4.38;;
33672;SDS011;20011;51.510;9.942;2022-08-05T10:45:39;14.18;;;5.80;;
33672;SDS011;20011;51.510;9.942;2022-08-05T10:51:20;6.75;;;5.03;;
33672;SDS011;20011;51.510;9.942;2022-08-05T10:53:58;12.25;;;5.13;;
33672;SDS011;20011;51.510;9.942;2022-08-05T10:56:36;5.95;;;3.65;;
33672;SDS011;20011;51.510;9.942;2022-08-05T10:59:18;4.50;;;4.10;;
33672;SDS011;20011;51.510;9.942;2022-08-05T11:02:12;2.95;;;2.70;;
33672;SDS011;20011;51.510;9.942;2022-08-05T11:05:02;6.05;;;2.95;;
33672;SDS011;20011;51.510;9.942;2022-08-05T11:07:31;8.50;;;5.55;;
33672;SDS011;20011;51.510;9.942;2022-08-05T11:10:21;4.50;;;3.13;;
33672;SDS011;20011;51.510;9.942;2022-08-05T11:12:53;8.73;;;3.30;;
33672;SDS011;20011;51.510;9.942;2022-08-05T11:15:22;6.57;;;2.00;;
33672;SDS011;20011;51.510;9.942;2022-08-05T11:20:59;1.33;;;1.23;;
33672;SDS011;20011;51.510;9.942;2022-08-05T11:23:41;1.88;;;1.67;;
33672;SDS011;20011;51.510;9.942;2022-08-05T11:26:38;3.95;;;2.13;;
33672;SDS011;20011;51.510;9.942;2022-08-05T11:29:11;1.85;;;1.70;;
33672;SDS011;20011;51.510;9.942;2022-08-05T11:34:50;2.17;;;1.70;;
33672;SDS011;20011;51.510;9.942;2022-08-05T11:41:01;1.45;;;1.35;;
33672;SDS011;20011;51.510;9.942;2022-08-05T11:46:59;6.25;;;3.83;;
33672;SDS011;20011;51.510;9.942;2022-08-05T11:49:41;5.00;;;2.30;;
33672;SDS011;20011;51.510;9.942;2022-08-05T11:52:23;9.00;;;1.67;;
33672;SDS011;20011;51.510;9.942;2022-08-05T11:54:55;0.80;;;0.75;;
33672;SDS011;20011;51.510;9.942;2022-08-05T11:57:27;2.72;;;1.00;;
33672;SDS011;20011;51.510;9.942;2022-08-05T12:00:04;4.43;;;1.08;;
33672;SDS011;20011;51.510;9.942;2022-08-05T12:02:55;8.05;;;1.30;;
33672;SDS011;20011;51.510;9.942;2022-08-05T12:05:26;6.47;;;1.20;;
33672;SDS011;20011;51.510;9.942;2022-08-05T12:08:05;5.00;;;1.48;;
33672;SDS011;20011;51.510;9.942;2022-08-05T12:10:36;2.70;;;1.50;;
33672;SDS011;20011;51.510;9.942;2022-08-05T12:13:12;3.22;;;2.00;;
33672;SDS011;20011;51.510;9.942;2022-08-05T12:16:06;4.70;;;3.42;;
33672;SDS011;20011;51.510;9.942;2022-08-05T12:18:41;10.13;;;5.63;;
33672;SDS011;20011;51.510;9.942;2022-08-05T12:23:53;12.98;;;8.30;;
33672;SDS011;20011;51.510;9.942;2022-08-05T12:26:20;16.88;;;9.50;;
33672;SDS011;20011;51.510;9.942;2022-08-05T12:28:49;15.85;;;10.05;;
33672;SDS011;20011;51.510;9.942;2022-08-05T12:31:17;17.80;;;9.68;;
33672;SDS011;20011;51.510;9.942;2022-08-05T12:33:59;21.88;;;10.13;;
33672;SDS011;20011;51.510;9.942;2022-08-05T12:36:31;19.45;;;10.25;;
33672;SDS011;20011;51.510;9.942;2022-08-05T12:39:01;12.30;;;8.20;;
33672;SDS011;20011;51.510;9.942;2022-08-05T12:41:32;13.80;;;7.53;;
33672;SDS011;20011;51.510;9.942;2022-08-05T12:44:09;12.27;;;8.55;;
33672;SDS011;20011;51.510;9.942;2022-08-05T12:46:54;12.23;;;8.00;;
33672;SDS011;20011;51.510;9.942;2022-08-05T12:49:22;11.43;;;7.68;;
33672;SDS011;20011;51.510;9.942;2022-08-05T12:51:57;9.50;;;6.72;;
33672;SDS011;20011;51.510;9.942;2022-08-05T12:54:40;11.68;;;6.32;;
33672;SDS011;20011;51.510;9.942;2022-08-05T12:57:09;12.35;;;6.82;;
33672;SDS011;20011;51.510;9.942;2022-08-05T12:59:48;8.73;;;6.45;;
33672;SDS011;20011;51.510;9.942;2022-08-05T13:02:37;9.88;;;5.10;;
33672;SDS011;20011;51.510;9.942;2022-08-05T13:05:06;6.97;;;4.45;;
33672;SDS011;20011;51.510;9.942;2022-08-05T13:07:39;9.77;;;5.13;;
33672;SDS011;20011;51.510;9.942;2022-08-05T13:10:25;5.88;;;4.13;;
33672;SDS011;20011;51.510;9.942;2022-08-05T13:12:54;5.88;;;4.07;;
33672;SDS011;20011;51.510;9.942;2022-08-05T13:15:30;4.60;;;3.35;;
33672;SDS011;20011;51.510;9.942;2022-08-05T13:18:17;6.15;;;3.65;;
33672;SDS011;20011;51.510;9.942;2022-08-05T13:20:46;8.70;;;3.38;;
33672;SDS011;20011;51.510;9.942;2022-08-05T13:23:15;9.93;;;4.28;;
33672;SDS011;20011;51.510;9.942;2022-08-05T13:25:47;7.20;;;3.13;;
33672;SDS011;20011;51.510;9.942;2022-08-05T13:28:24;7.38;;;3.10;;
33672;SDS011;20011;51.510;9.942;2022-08-05T13:30:51;9.02;;;3.15;;
33672;SDS011;20011;51.510;9.942;2022-08-05T13:33:21;10.95;;;3.50;;
33672;SDS011;20011;51.510;9.942;2022-08-05T13:36:09;3.85;;;2.58;;
33672;SDS011;20011;51.510;9.942;2022-08-05T13:38:40;8.63;;;3.20;;
33672;SDS011;20011;51.510;9.942;2022-08-05T13:41:09;10.43;;;2.53;;
33672;SDS011;20011;51.510;9.942;2022-08-05T13:43:37;4.57;;;2.58;;
33672;SDS011;20011;51.510;9.942;2022-08-05T13:46:19;5.55;;;2.35;;
33672;SDS011;20011;51.510;9.942;2022-08-05T13:49:07;8.05;;;2.15;;
33672;SDS011;20011;51.510;9.942;2022-08-05T13:51:37;6.00;;;2.55;;
33672;SDS011;20011;51.510;9.942;2022-08-05T13:54:07;5.80;;;2.28;;
33672;SDS011;20011;51.510;9.942;2022-08-05T13:56:38;10.00;;;2.63;;
33672;SDS011;20011;51.510;9.942;2022-08-05T13:59:20;3.47;;;1.85;;
33672;SDS011;20011;51.510;9.942;2022-08-05T14:01:51;4.93;;;2.45;;
33672;SDS011;20011;51.510;9.942;2022-08-05T14:04:28;3.20;;;1.73;;
33672;SDS011;20011;51.510;9.942;2022-08-05T14:07:22;3.05;;;2.00;;
33672;SDS011;20011;51.510;9.942;2022-08-05T14:10:14;2.53;;;1.80;;
33672;SDS011;20011;51.510;9.942;2022-08-05T14:12:54;3.42;;;2.00;;
33672;SDS011;20011;51.510;9.942;2022-08-05T14:15:22;7.03;;;3.33;;
33672;SDS011;20011;51.510;9.942;2022-08-05T14:18:10;4.75;;;2.03;;
33672;SDS011;20011;51.510;9.942;2022-08-05T14:20:46;3.63;;;2.15;;
33672;SDS011;20011;51.510;9.942;2022-08-05T14:23:18;7.93;;;2.22;;
33672;SDS011;20011;51.510;9.942;2022-08-05T14:25:52;4.13;;;2.30;;
33672;SDS011;20011;51.510;9.942;2022-08-05T14:28:24;4.78;;;2.25;;
33672;SDS011;20011;51.510;9.942;2022-08-05T14:30:54;2.80;;;2.00;;
33672;SDS011;20011;51.510;9.942;2022-08-05T14:33:21;4.38;;;2.03;;
33672;SDS011;20011;51.510;9.942;2022-08-05T14:35:49;6.90;;;2.33;;
33672;SDS011;20011;51.510;9.942;2022-08-05T14:38:20;4.93;;;2.30;;
33672;SDS011;20011;51.510;9.942;2022-08-05T14:41:00;9.38;;;1.90;;
33672;SDS011;20011;51.510;9.942;2022-08-05T14:43:33;3.28;;;1.70;;
33672;SDS011;20011;51.510;9.942;2022-08-05T14:46:21;3.67;;;1.45;;
33672;SDS011;20011;51.510;9.942;2022-08-05T14:48:56;2.63;;;1.45;;
33672;SDS011;20011;51.510;9.942;2022-08-05T14:51:28;1.67;;;1.42;;
33672;SDS011;20011;51.510;9.942;2022-08-05T14:53:59;3.20;;;1.35;;
33672;SDS011;20011;51.510;9.942;2022-08-05T14:56:46;1.73;;;1.20;;
33672;SDS011;20011;51.510;9.942;2022-08-05T14:59:16;1.67;;;1.38;;
33672;SDS011;20011;51.510;9.942;2022-08-05T15:01:46;1.40;;;1.30;;
33672;SDS011;20011;51.510;9.942;2022-08-05T15:04:18;3.17;;;1.48;;
33672;SDS011;20011;51.510;9.942;2022-08-05T15:06:48;4.70;;;1.60;;
33672;SDS011;20011;51.510;9.942;2022-08-05T15:09:17;3.03;;;1.60;;
33672;SDS011;20011;51.510;9.942;2022-08-05T15:12:07;3.45;;;1.60;;
33672;SDS011;20011;51.510;9.942;2022-08-05T15:14:42;4.55;;;2.25;;
33672;SDS011;20011;51.510;9.942;2022-08-05T15:17:16;3.75;;;1.75;;
33672;SDS011;20011;51.510;9.942;2022-08-05T15:20:04;2.63;;;1.80;;
33672;SDS011;20011;51.510;9.942;2022-08-05T15:22:40;1.92;;;1.63;;
33672;SDS011;20011;51.510;9.942;2022-08-05T15:25:10;4.07;;;2.15;;
33672;SDS011;20011;51.510;9.942;2022-08-05T15:27:40;2.55;;;1.65;;
33672;SDS011;20011;51.510;9.942;2022-08-05T15:30:17;4.13;;;1.90;;
33672;SDS011;20011;51.510;9.942;2022-08-05T15:32:45;4.13;;;2.03;;
33672;SDS011;20011;51.510;9.942;2022-08-05T15:35:12;5.15;;;2.25;;
33672;SDS011;20011;51.510;9.942;2022-08-05T15:37:40;2.15;;;1.73;;
33672;SDS011;20011;51.510;9.942;2022-08-05T15:40:27;4.32;;;2.22;;
33672;SDS011;20011;51.510;9.942;2022-08-05T15:43:15;3.40;;;1.88;;
33672;SDS011;20011;51.510;9.942;2022-08-05T15:45:45;3.65;;;1.98;;
33672;SDS011;20011;51.510;9.942;2022-08-05T15:48:26;3.95;;;2.05;;
33672;SDS011;20011;51.510;9.942;2022-08-05T15:50:53;5.50;;;2.40;;
33672;SDS011;20011;51.510;9.942;2022-08-05T15:53:21;4.05;;;2.05;;
33672;SDS011;20011;51.510;9.942;2022-08-05T15:55:51;1.77;;;1.67;;
33672;SDS011;20011;51.510;9.942;2022-08-05T15:58:29;7.47;;;1.83;;
33672;SDS011;20011;51.510;9.942;2022-08-05T16:01:03;4.65;;;1.83;;
33672;SDS011;20011;51.510;9.942;2022-08-05T16:03:43;4.75;;;1.98;;
33672;SDS011;20011;51.510;9.942;2022-08-05T16:06:14;4.40;;;2.38;;
33672;SDS011;20011;51.510;9.942;2022-08-05T16:08:45;1.92;;;1.65;;
33672;SDS011;20011;51.510;9.942;2022-08-05T16:11:16;4.97;;;1.55;;
33672;SDS011;20011;51.510;9.942;2022-08-05T16:14:03;1.83;;;1.58;;
33672;SDS011;20011;51.510;9.942;2022-08-05T16:16:31;5.35;;;1.85;;